VTSE/CJM METAR and TAF weather

Enter ICAO airport designator
Station Type Date Time Source
VTSE METAR 2022/11/30 11:00 UTC NOAA

VTSE 301100Z 10003KT 9999 FEW020 29/25 Q1008 NOSIG


Station Type Date Time Source
VTSE Decoded METAR 2022/11/30 11:00 UTC NOAA

Station name not available
Nov 30, 2022 - 06:00 AM EST / 2022.11.30 1100 UTC
Wind: from the E (100 degrees) at 3 MPH (3 KT):0
Visibility: greater than 7 mile(s):0
Sky conditions: mostly clear
Temperature: 84 F (29 C)
Dew Point: 77 F (25 C)
Relative Humidity: 79%
Pressure (altimeter): 29.77 in. Hg (1008 hPa)
ob: VTSE 301100Z 10003KT 9999 FEW020 29/25 Q1008 NOSIG
cycle: 11

Station Type Date Time Source
VTSE TAF 2022/11/30 06:00 UTC NOAA

TAF VTSE 300500Z 3006/0106 07008KT 9999 FEW020
BECMG 3012/3014 00000KT

Example: see airport list